Time;durP1;ratioP1;P1;durP2;ratioP2;P2;SDS_P1;SDS_P2;PMS_P1;PMS_P2;Temp;Humidity;BMP_temperature;BMP_pressure;BME280_temperature;BME280_humidity;BME280_pressure;Samples;Min_cycle;Max_cycle;Signal;HPM_P1;HPM_P2
2023/06/29 00:01:21;;;;;;;0.10;0.10;;;14.70;67.50;;;;;;5053838;28;20687;-54
2023/06/29 00:03:52;;;;;;;0.10;0.10;;;14.80;67.50;;;;;;5052115;28;20220;-52
2023/06/29 00:06:23;;;;;;;0.10;0.10;;;14.70;67.50;;;;;;5046150;28;20195;-56
2023/06/29 00:08:53;;;;;;;0.10;0.10;;;14.80;68.20;;;;;;5054238;28;20191;-57
2023/06/29 00:11:26;;;;;;;0.10;0.10;;;14.80;68.30;;;;;;5053529;28;20219;-55
2023/06/29 00:13:57;;;;;;;0.10;0.10;;;14.80;68.20;;;;;;5054381;28;20596;-56
2023/06/29 00:16:27;;;;;;;0.10;0.10;;;14.90;68.30;;;;;;5053359;28;20231;-52
2023/06/29 00:19:00;;;;;;;0.10;0.10;;;14.90;68.30;;;;;;5054314;28;20200;-55
2023/06/29 00:21:31;;;;;;;0.10;0.10;;;14.90;68.30;;;;;;5053139;28;20583;-56
2023/06/29 00:24:02;;;;;;;0.10;0.10;;;15.00;68.40;;;;;;5054773;28;20224;-52
2023/06/29 00:26:35;;;;;;;0.10;0.10;;;15.00;68.40;;;;;;5054155;28;20188;-53
2023/06/29 00:29:05;;;;;;;0.10;0.10;;;15.00;69.20;;;;;;5054201;28;20196;-54
2023/06/29 00:31:36;;;;;;;0.10;0.10;;;15.00;68.40;;;;;;5053323;28;20234;-51
2023/06/29 00:34:06;;;;;;;0.10;0.10;;;15.10;68.50;;;;;;5053545;28;20206;-51
2023/06/29 00:36:37;;;;;;;0.10;0.10;;;15.10;68.60;;;;;;5044876;28;20191;-54
2023/06/29 00:39:08;;;;;;;0.10;0.10;;;15.10;68.50;;;;;;5054408;28;20199;-55
2023/06/29 00:41:40;;;;;;;0.10;0.10;;;15.10;68.40;;;;;;5048852;28;20679;-49
2023/06/29 00:44:12;;;;;;;0.10;0.10;;;15.10;69.20;;;;;;5044880;28;20216;-49
2023/06/29 00:46:43;;;;;;;0.10;0.10;;;15.10;68.30;;;;;;5049274;28;20207;-50
2023/06/29 00:49:14;;;;;;;0.10;0.10;;;15.10;68.30;;;;;;5053474;28;20199;-54
2023/06/29 00:51:49;;;;;;;0.10;0.10;;;15.20;68.50;;;;;;5053375;28;20212;-52
2023/06/29 00:54:20;;;;;;;0.13;0.13;;;15.20;68.70;;;;;;5068912;28;20201;-51
2023/06/29 00:56:53;;;;;;;0.10;0.10;;;15.20;68.60;;;;;;5061037;28;20275;-52
2023/06/29 00:59:24;;;;;;;0.10;0.10;;;15.30;68.80;;;;;;5053324;28;20207;-55
2023/06/29 01:01:55;;;;;;;0.10;0.10;;;15.30;68.70;;;;;;5053096;28;20219;-56
2023/06/29 01:04:27;;;;;;;0.10;0.10;;;15.30;68.70;;;;;;5053010;28;20231;-52
2023/06/29 01:07:02;;;;;;;0.10;0.10;;;15.30;68.60;;;;;;5052875;28;20278;-54
2023/06/29 01:09:34;;;;;;;0.10;0.10;;;15.40;68.60;;;;;;5057453;28;20241;-52
2023/06/29 01:12:10;;;;;;;0.10;0.10;;;15.40;68.50;;;;;;5058488;28;20218;-51
2023/06/29 01:14:42;;;;;;;0.10;0.10;;;15.40;68.50;;;;;;5054236;28;20195;-55
2023/06/29 01:17:16;;;;;;;0.00;0.00;;;15.40;68.50;;;;;;5042625;28;20294;-53
2023/06/29 01:19:50;;;;;;;0.10;0.10;;;15.40;68.50;;;;;;5033942;28;20196;-57
2023/06/29 01:22:26;;;;;;;0.00;0.00;;;15.40;68.40;;;;;;5047444;28;20219;-55
2023/06/29 01:24:59;;;;;;;0.10;0.10;;;15.50;68.50;;;;;;5053250;28;20222;-55
2023/06/29 01:27:31;;;;;;;0.10;0.10;;;15.50;68.30;;;;;;5052364;28;20199;-52
2023/06/29 01:30:03;;;;;;;0.10;0.10;;;15.50;68.30;;;;;;5052527;28;20199;-54
2023/06/29 01:32:35;;;;;;;0.10;0.10;;;15.50;68.30;;;;;;5052467;28;20215;-55
2023/06/29 01:35:07;;;;;;;0.10;0.10;;;15.50;68.30;;;;;;5052664;28;20651;-54
2023/06/29 01:37:44;;;;;;;0.10;0.10;;;15.50;68.30;;;;;;5052354;28;20199;-54
2023/06/29 01:40:20;;;;;;;0.10;0.10;;;15.60;68.40;;;;;;5052570;28;20195;-54
2023/06/29 01:42:52;;;;;;;0.10;0.10;;;15.60;68.40;;;;;;5052893;28;20211;-56
2023/06/29 01:45:24;;;;;;;0.00;0.00;;;15.60;68.40;;;;;;5051909;28;20278;-56
2023/06/29 01:47:55;;;;;;;0.10;0.10;;;15.70;68.40;;;;;;5052745;28;20198;-52
2023/06/29 01:50:27;;;;;;;0.10;0.10;;;15.60;68.40;;;;;;5051791;28;20542;-52
2023/06/29 01:52:57;;;;;;;0.10;0.10;;;15.70;68.40;;;;;;5052350;28;20208;-54
2023/06/29 01:55:30;;;;;;;0.10;0.10;;;15.70;68.30;;;;;;5051717;28;20191;-55
2023/06/29 01:58:01;;;;;;;0.10;0.10;;;15.70;68.30;;;;;;5051192;28;20191;-53
2023/06/29 02:00:31;;;;;;;0.10;0.10;;;15.80;68.40;;;;;;5041289;28;20200;-54
2023/06/29 02:03:02;;;;;;;0.10;0.10;;;15.70;68.30;;;;;;5040348;28;20192;-54
2023/06/29 02:05:33;;;;;;;0.10;0.10;;;15.80;68.30;;;;;;5046355;28;20204;-50
2023/06/29 02:08:03;;;;;;;0.10;0.10;;;15.80;68.30;;;;;;5052164;28;20540;-55
2023/06/29 02:10:36;;;;;;;0.10;0.10;;;15.80;68.20;;;;;;5051231;28;20659;-54
2023/06/29 02:13:07;;;;;;;0.10;0.10;;;15.90;68.30;;;;;;5052264;28;20202;-56
2023/06/29 02:15:37;;;;;;;0.15;0.15;;;15.80;68.20;;;;;;5051473;28;20359;-55
2023/06/29 02:18:08;;;;;;;0.10;0.10;;;15.90;68.20;;;;;;5051849;28;20762;-54
2023/06/29 02:20:39;;;;;;;0.10;0.10;;;15.90;68.20;;;;;;5051739;28;20195;-54
2023/06/29 02:23:09;;;;;;;0.15;0.15;;;15.90;68.20;;;;;;5051091;28;20206;-54
2023/06/29 02:25:42;;;;;;;0.10;0.10;;;15.90;68.20;;;;;;5051358;28;20206;-56
2023/06/29 02:28:12;;;;;;;0.10;0.10;;;16.00;68.20;;;;;;5051678;28;20202;-52
2023/06/29 02:30:43;;;;;;;0.10;0.10;;;16.00;68.10;;;;;;5052299;28;20196;-55
2023/06/29 02:33:14;;;;;;;0.10;0.10;;;16.00;68.20;;;;;;5052313;28;20196;-55
2023/06/29 02:35:44;;;;;;;0.10;0.10;;;16.00;68.10;;;;;;5049016;28;20626;-53
2023/06/29 02:38:15;;;;;;;0.10;0.10;;;16.10;68.30;;;;;;5051371;28;20198;-56
2023/06/29 02:40:48;;;;;;;0.10;0.10;;;16.10;68.30;;;;;;5050378;28;20180;-56
2023/06/29 02:43:18;;;;;;;0.10;0.10;;;16.10;68.20;;;;;;5051258;28;20192;-55
2023/06/29 02:45:49;;;;;;;0.20;0.20;;;16.20;68.30;;;;;;5051865;28;20230;-55
2023/06/29 02:48:20;;;;;;;0.00;0.00;;;16.20;68.30;;;;;;5051579;28;20206;-55
2023/06/29 02:50:50;;;;;;;0.10;0.10;;;16.20;68.20;;;;;;5051216;28;20192;-55
2023/06/29 02:53:21;;;;;;;0.20;0.20;;;16.30;68.30;;;;;;5050773;28;20188;-55
2023/06/29 02:55:54;;;;;;;0.10;0.10;;;16.30;68.20;;;;;;5050991;28;20195;-56
2023/06/29 02:58:24;;;;;;;0.10;0.10;;;16.30;68.30;;;;;;5051404;28;20198;-56
2023/06/29 03:00:55;;;;;;;0.10;0.10;;;16.30;68.20;;;;;;5050598;28;20215;-55
2023/06/29 03:03:26;;;;;;;0.10;0.10;;;16.40;68.20;;;;;;5051004;28;20200;-55
2023/06/29 03:05:56;;;;;;;0.00;0.00;;;16.40;68.20;;;;;;5050885;28;20198;-56
2023/06/29 03:08:27;;;;;;;0.10;0.10;;;16.50;68.20;;;;;;5051603;28;20619;-55
2023/06/29 03:10:59;;;;;;;0.10;0.10;;;16.50;68.10;;;;;;5051539;28;20520;-54
2023/06/29 03:13:30;;;;;;;0.10;0.10;;;16.50;68.10;;;;;;5051569;28;20195;-55
2023/06/29 03:16:01;;;;;;;0.15;0.15;;;16.60;68.10;;;;;;5051398;28;20191;-55
2023/06/29 03:18:31;;;;;;;0.00;0.00;;;16.60;68.00;;;;;;5050546;28;20191;-56
2023/06/29 03:21:02;;;;;;;0.10;0.10;;;16.60;68.00;;;;;;5050386;28;20463;-54
2023/06/29 03:23:33;;;;;;;0.10;0.10;;;16.60;67.90;;;;;;5050132;28;20227;-56
2023/06/29 03:26:05;;;;;;;0.10;0.10;;;16.70;68.00;;;;;;5050432;28;20192;-55
2023/06/29 03:28:36;;;;;;;0.10;0.10;;;16.70;68.00;;;;;;5069276;28;20624;-55
2023/06/29 03:31:07;;;;;;;0.10;0.10;;;16.70;68.00;;;;;;5053839;28;20214;-55
2023/06/29 03:33:37;;;;;;;0.10;0.10;;;16.70;68.00;;;;;;5051272;28;20208;-53
2023/06/29 03:36:11;;;;;;;0.10;0.10;;;16.80;68.00;;;;;;5050025;28;20195;-55
2023/06/29 03:38:41;;;;;;;0.10;0.10;;;16.80;68.00;;;;;;5051094;28;20256;-55
2023/06/29 03:41:14;;;;;;;0.03;0.03;;;16.90;68.00;;;;;;5050752;28;20222;-54
2023/06/29 03:43:45;;;;;;;0.10;0.10;;;16.90;67.90;;;;;;5050435;28;20211;-55
2023/06/29 03:46:15;;;;;;;0.00;0.00;;;16.90;67.80;;;;;;5049830;28;20199;-54
2023/06/29 03:48:46;;;;;;;0.10;0.10;;;16.90;67.70;;;;;;5050568;28;20206;-52
2023/06/29 03:51:17;;;;;;;0.20;0.20;;;17.00;67.70;;;;;;5050252;28;20719;-55
2023/06/29 03:53:47;;;;;;;0.10;0.10;;;17.00;67.70;;;;;;5048922;28;20241;-56
2023/06/29 03:56:20;;;;;;;0.10;0.10;;;17.00;67.60;;;;;;5050066;28;20191;-52
2023/06/29 03:58:50;;;;;;;0.10;0.10;;;17.00;67.50;;;;;;5050863;28;20195;-55
2023/06/29 04:01:21;;;;;;;0.10;0.10;;;17.10;67.50;;;;;;5051005;28;20246;-55
2023/06/29 04:03:53;;;;;;;0.10;0.10;;;17.10;67.50;;;;;;5050365;28;20225;-56
2023/06/29 04:06:24;;;;;;;0.10;0.10;;;17.20;67.50;;;;;;5043956;28;20282;-55
2023/06/29 04:08:54;;;;;;;0.10;0.10;;;17.20;67.40;;;;;;5050428;28;20207;-56
2023/06/29 04:11:27;;;;;;;0.10;0.10;;;17.20;67.40;;;;;;5049437;28;20218;-57
2023/06/29 04:13:57;;;;;;;0.10;0.10;;;17.20;67.30;;;;;;5065439;28;20210;-57
2023/06/29 04:16:28;;;;;;;0.10;0.10;;;17.30;67.30;;;;;;5056596;28;20206;-57
2023/06/29 04:18:59;;;;;;;0.10;0.10;;;17.30;67.30;;;;;;5050050;28;20214;-54
2023/06/29 04:21:29;;;;;;;0.00;0.00;;;17.30;67.30;;;;;;5049426;28;20695;-56
2023/06/29 04:24:00;;;;;;;0.08;0.08;;;17.40;67.30;;;;;;5050486;28;20609;-57
2023/06/29 04:26:33;;;;;;;0.10;0.10;;;17.40;67.30;;;;;;5049858;28;20203;-56
2023/06/29 04:29:05;;;;;;;0.00;0.00;;;17.40;67.20;;;;;;5051024;28;20195;-57
2023/06/29 04:31:36;;;;;;;0.10;0.10;;;17.40;67.10;;;;;;5043713;28;20238;-56
2023/06/29 04:34:07;;;;;;;0.00;0.00;;;17.50;67.10;;;;;;5050624;28;20195;-56
2023/06/29 04:36:37;;;;;;;0.00;0.00;;;17.50;67.10;;;;;;5050034;28;20192;-55
2023/06/29 04:39:08;;;;;;;0.10;0.10;;;17.50;67.00;;;;;;5051113;28;20203;-56
2023/06/29 04:41:41;;;;;;;0.00;0.00;;;17.50;67.30;;;;;;5050141;28;20732;-56
2023/06/29 04:44:12;;;;;;;0.00;0.00;;;17.50;66.90;;;;;;5050275;28;20227;-57
2023/06/29 04:46:43;;;;;;;0.10;0.10;;;17.50;66.80;;;;;;5050154;28;20210;-57
2023/06/29 04:49:13;;;;;;;0.10;0.10;;;17.50;66.80;;;;;;5053178;28;20195;-57
2023/06/29 04:51:44;;;;;;;0.10;0.10;;;17.50;66.70;;;;;;5053112;28;20738;-56
2023/06/29 04:54:15;;;;;;;0.10;0.10;;;17.50;66.70;;;;;;5053510;28;20217;-57
2023/06/29 04:56:47;;;;;;;0.10;0.10;;;17.50;66.70;;;;;;5053443;28;20190;-56
2023/06/29 04:59:18;;;;;;;0.10;0.10;;;17.50;66.60;;;;;;5053357;28;20196;-57
2023/06/29 05:01:49;;;;;;;0.10;0.10;;;17.50;66.80;;;;;;5053492;28;20215;-57
2023/06/29 05:04:19;;;;;;;0.10;0.10;;;17.50;66.80;;;;;;5053481;28;20234;-55
2023/06/29 05:06:50;;;;;;;0.10;0.10;;;17.50;66.80;;;;;;5053410;28;20214;-57
2023/06/29 05:09:21;;;;;;;0.10;0.10;;;17.50;66.80;;;;;;5053109;28;20191;-55
2023/06/29 05:11:53;;;;;;;0.00;0.00;;;17.50;66.70;;;;;;5053244;28;20687;-50
2023/06/29 05:14:24;;;;;;;0.10;0.10;;;17.50;66.60;;;;;;5053638;28;20290;-56
2023/06/29 05:16:55;;;;;;;0.10;0.10;;;17.50;66.50;;;;;;5052501;28;20552;-57
2023/06/29 05:19:25;;;;;;;0.10;0.10;;;17.50;66.50;;;;;;5058420;28;20669;-55
2023/06/29 05:21:56;;;;;;;0.00;0.00;;;17.50;66.50;;;;;;5065925;28;20214;-56
2023/06/29 05:24:29;;;;;;;0.00;0.00;;;17.50;66.50;;;;;;5072363;28;20237;-57
2023/06/29 05:27:01;;;;;;;0.10;0.10;;;17.50;66.50;;;;;;5058631;28;20214;-53
2023/06/29 05:29:32;;;;;;;0.10;0.10;;;17.50;66.30;;;;;;5052300;28;20191;-56
2023/06/29 05:32:03;;;;;;;0.10;0.10;;;17.50;66.30;;;;;;5053104;28;20251;-57
2023/06/29 05:34:35;;;;;;;0.00;0.00;;;17.50;66.30;;;;;;5052691;28;20206;-56
2023/06/29 05:37:06;;;;;;;0.08;0.08;;;17.50;66.20;;;;;;5051821;28;20191;-55
2023/06/29 05:39:37;;;;;;;0.10;0.10;;;17.50;66.20;;;;;;5052134;28;20737;-56
2023/06/29 05:42:10;;;;;;;0.10;0.10;;;17.50;66.20;;;;;;5052458;28;20212;-53
2023/06/29 05:44:41;;;;;;;0.10;0.10;;;17.50;66.10;;;;;;5049194;28;20219;-56
2023/06/29 05:47:11;;;;;;;0.10;0.10;;;17.50;66.10;;;;;;5051147;28;20195;-55
2023/06/29 05:49:42;;;;;;;0.10;0.10;;;17.40;66.00;;;;;;5051905;28;20555;-55
2023/06/29 05:52:13;;;;;;;0.00;0.00;;;17.40;65.90;;;;;;5051637;28;20230;-57
2023/06/29 05:54:44;;;;;;;0.10;0.10;;;17.40;65.90;;;;;;5052757;28;20202;-56
2023/06/29 05:57:17;;;;;;;0.10;0.10;;;17.40;65.80;;;;;;5051681;28;20195;-55
2023/06/29 05:59:48;;;;;;;0.00;0.00;;;17.40;65.70;;;;;;5053126;28;20257;-53
2023/06/29 06:02:19;;;;;;;0.10;0.10;;;17.30;65.70;;;;;;5051543;28;20211;-51
2023/06/29 06:04:49;;;;;;;0.10;0.10;;;17.30;65.50;;;;;;5055726;28;20593;-53
2023/06/29 06:07:30;;;;;;;0.10;0.10;;;17.30;65.50;;;;;;5051073;28;20196;-56
2023/06/29 06:10:01;;;;;;;0.10;0.10;;;17.30;65.50;;;;;;5052187;28;20191;-56
2023/06/29 06:12:34;;;;;;;0.10;0.10;;;17.30;65.40;;;;;;5051985;28;20682;-55
2023/06/29 06:15:05;;;;;;;0.10;0.10;;;17.30;65.40;;;;;;5051578;28;20203;-50
2023/06/29 06:17:36;;;;;;;0.10;0.10;;;17.20;66.10;;;;;;5051968;28;20188;-53
2023/06/29 06:20:08;;;;;;;0.10;0.10;;;17.20;65.40;;;;;;5051663;28;20192;-51
2023/06/29 06:22:39;;;;;;;0.10;0.10;;;17.20;65.30;;;;;;5051037;28;20302;-51
2023/06/29 06:25:11;;;;;;;0.10;0.10;;;17.20;65.30;;;;;;5051885;28;20223;-51
2023/06/29 06:27:44;;;;;;;0.10;0.10;;;17.20;65.20;;;;;;5052032;28;20557;-55
2023/06/29 06:30:15;;;;;;;0.05;0.05;;;17.20;65.20;;;;;;5050952;28;20190;-58
2023/06/29 06:32:45;;;;;;;0.10;0.10;;;17.20;65.20;;;;;;5051687;28;20562;-50
2023/06/29 06:35:16;;;;;;;0.10;0.10;;;17.20;65.20;;;;;;5049279;28;20638;-53
2023/06/29 06:37:47;;;;;;;0.10;0.10;;;17.20;65.20;;;;;;5051328;28;20195;-49
2023/06/29 06:40:18;;;;;;;0.10;0.10;;;17.20;65.30;;;;;;5051726;28;20202;-51
2023/06/29 06:42:51;;;;;;;0.10;0.10;;;17.10;65.20;;;;;;5050764;28;20299;-48
2023/06/29 06:45:22;;;;;;;0.10;0.10;;;17.10;65.20;;;;;;5050811;28;20233;-56
2023/06/29 06:47:53;;;;;;;0.10;0.10;;;17.10;64.80;;;;;;5049837;28;20195;-51
2023/06/29 06:50:24;;;;;;;0.03;0.03;;;17.10;63.60;;;;;;5050328;28;20203;-56
2023/06/29 06:52:54;;;;;;;0.10;0.10;;;17.00;63.10;;;;;;5050459;28;20215;-54
2023/06/29 06:55:25;;;;;;;0.10;0.10;;;17.00;63.20;;;;;;5051883;28;20210;-54
2023/06/29 06:57:58;;;;;;;0.10;0.10;;;17.00;63.40;;;;;;5050625;28;20192;-52
2023/06/29 07:00:29;;;;;;;0.10;0.10;;;16.90;63.50;;;;;;5050606;28;20200;-54
2023/06/29 07:02:59;;;;;;;0.10;0.10;;;16.90;63.60;;;;;;5049489;28;20510;-51
2023/06/29 07:05:30;;;;;;;0.10;0.10;;;16.90;63.70;;;;;;5063446;28;20226;-52
2023/06/29 07:08:01;;;;;;;0.10;0.10;;;16.90;63.80;;;;;;5054058;28;20640;-53
2023/06/29 07:10:31;;;;;;;0.10;0.10;;;16.90;63.90;;;;;;5050231;28;20199;-49
2023/06/29 07:13:04;;;;;;;0.17;0.17;;;16.90;64.00;;;;;;5050756;28;20713;-53
2023/06/29 07:15:35;;;;;;;0.10;0.10;;;16.90;64.00;;;;;;5051074;28;20195;-59
2023/06/29 07:18:06;;;;;;;0.10;0.10;;;16.90;64.10;;;;;;5051234;28;20195;-51
2023/06/29 07:20:36;;;;;;;0.10;0.10;;;16.80;63.90;;;;;;5044857;28;20195;-52
2023/06/29 07:23:07;;;;;;;0.10;0.10;;;16.80;64.00;;;;;;5041440;28;20227;-53
2023/06/29 07:25:38;;;;;;;0.10;0.10;;;16.80;64.00;;;;;;5040891;28;20711;-53
2023/06/29 07:28:11;;;;;;;0.10;0.10;;;16.80;64.10;;;;;;5040688;28;20187;-53
2023/06/29 07:30:41;;;;;;;0.10;0.10;;;16.80;64.00;;;;;;5039114;28;20279;-53
2023/06/29 07:33:13;;;;;;;0.10;0.10;;;16.80;64.00;;;;;;5037367;28;20198;-54
2023/06/29 07:35:43;;;;;;;0.10;0.10;;;16.70;64.00;;;;;;5045339;28;20629;-51
2023/06/29 07:38:15;;;;;;;0.10;0.10;;;16.80;64.00;;;;;;5042803;28;20192;-53
2023/06/29 07:40:45;;;;;;;0.10;0.10;;;16.80;64.00;;;;;;5039844;28;20275;-50
2023/06/29 07:43:18;;;;;;;0.10;0.10;;;16.80;64.00;;;;;;5041259;28;20192;-54
2023/06/29 07:45:49;;;;;;;0.10;0.10;;;16.70;64.00;;;;;;5038852;28;20220;-54
2023/06/29 07:48:20;;;;;;;0.10;0.10;;;16.70;64.00;;;;;;5039491;28;20635;-53
2023/06/29 07:50:51;;;;;;;0.20;0.20;;;16.70;64.00;;;;;;5041269;28;20707;-57
2023/06/29 07:53:21;;;;;;;0.10;0.10;;;16.70;64.10;;;;;;5030522;28;20207;-57
2023/06/29 07:55:52;;;;;;;0.10;0.10;;;16.70;64.10;;;;;;5049554;28;20203;-52
2023/06/29 07:58:25;;;;;;;0.10;0.10;;;16.70;64.10;;;;;;5049409;28;20195;-53
2023/06/29 08:00:56;;;;;;;0.00;0.00;;;16.70;64.20;;;;;;5050956;28;20219;-54
2023/06/29 08:03:27;;;;;;;0.00;0.00;;;16.70;64.20;;;;;;5051045;28;20205;-54
2023/06/29 08:05:57;;;;;;;0.10;0.10;;;16.70;64.20;;;;;;5067980;28;20274;-53
2023/06/29 08:08:31;;;;;;;0.00;0.00;;;16.70;64.20;;;;;;5070911;28;20868;-54
2023/06/29 08:11:01;;;;;;;0.00;0.00;;;16.60;64.20;;;;;;5070615;28;20221;-53
2023/06/29 08:13:34;;;;;;;0.08;0.08;;;16.60;64.20;;;;;;5060596;28;20203;-51
2023/06/29 08:16:05;;;;;;;0.10;0.10;;;16.60;64.10;;;;;;5050384;28;20218;-53
2023/06/29 08:18:36;;;;;;;0.08;0.08;;;16.60;64.10;;;;;;5050500;28;20639;-55
2023/06/29 08:21:06;;;;;;;0.03;0.03;;;16.60;64.10;;;;;;5052099;28;20596;-49
2023/06/29 08:23:37;;;;;;;0.10;0.10;;;16.60;64.10;;;;;;5053916;28;20195;-51
2023/06/29 08:26:08;;;;;;;0.10;0.10;;;16.60;64.10;;;;;;5054652;28;20247;-53
2023/06/29 08:28:41;;;;;;;0.10;0.10;;;16.60;64.10;;;;;;5054411;28;20231;-50
2023/06/29 08:31:12;;;;;;;0.10;0.10;;;16.60;64.20;;;;;;5053891;28;20223;-51
2023/06/29 08:33:43;;;;;;;0.10;0.10;;;16.60;64.10;;;;;;5054378;28;20199;-50
2023/06/29 08:36:14;;;;;;;0.10;0.10;;;16.60;64.20;;;;;;5063606;28;20196;-54
2023/06/29 08:38:48;;;;;;;0.10;0.10;;;16.50;64.10;;;;;;5042759;28;20191;-52
2023/06/29 08:41:19;;;;;;;0.10;0.10;;;16.50;64.10;;;;;;5035762;28;20223;-55
2023/06/29 08:43:53;;;;;;;0.10;0.10;;;16.50;64.20;;;;;;5035764;28;20199;-54
2023/06/29 08:46:24;;;;;;;0.00;0.00;;;16.50;64.10;;;;;;5036656;28;20227;-53
2023/06/29 08:48:55;;;;;;;0.10;0.10;;;16.50;64.10;;;;;;5034330;28;20194;-53
2023/06/29 08:51:26;;;;;;;0.10;0.10;;;16.50;64.20;;;;;;5036074;28;20223;-49
2023/06/29 08:53:57;;;;;;;0.10;0.10;;;16.50;64.10;;;;;;5053733;28;20231;-54
2023/06/29 08:56:29;;;;;;;0.10;0.10;;;16.40;64.00;;;;;;5053761;28;20227;-49
2023/06/29 08:59:02;;;;;;;0.10;0.10;;;16.50;64.10;;;;;;5053330;28;20196;-47
2023/06/29 09:01:35;;;;;;;0.10;0.10;;;16.40;64.00;;;;;;5053429;28;20219;-51
2023/06/29 09:04:06;;;;;;;0.10;0.10;;;16.40;64.00;;;;;;5055241;28;20277;-50
2023/06/29 09:06:37;;;;;;;0.10;0.10;;;16.40;64.00;;;;;;5044381;28;20626;-52
2023/06/29 09:09:08;;;;;;;0.10;0.10;;;16.40;64.00;;;;;;5043698;28;20246;-51
2023/06/29 09:11:39;;;;;;;0.05;0.05;;;16.40;64.00;;;;;;5036408;28;20299;-51
2023/06/29 09:14:12;;;;;;;0.00;0.00;;;16.40;64.10;;;;;;5033181;28;20196;-52
2023/06/29 09:16:54;;;;;;;0.10;0.10;;;16.40;64.00;;;;;;5033821;28;20279;-49
2023/06/29 09:19:26;;;;;;;0.05;0.05;;;16.40;64.00;;;;;;5041697;28;20286;-49
2023/06/29 09:21:57;;;;;;;0.10;0.10;;;16.40;64.10;;;;;;5053669;28;20227;-49
2023/06/29 09:24:31;;;;;;;0.10;0.10;;;16.40;64.10;;;;;;5053197;28;20261;-50
2023/06/29 09:27:03;;;;;;;0.10;0.10;;;16.30;64.00;;;;;;5053204;28;20219;-51
2023/06/29 09:29:39;;;;;;;0.10;0.10;;;16.30;64.00;;;;;;5047347;28;20204;-49
2023/06/29 09:32:17;;;;;;;0.10;0.10;;;16.30;64.10;;;;;;5031336;28;20281;-53
2023/06/29 09:34:49;;;;;;;0.10;0.10;;;16.30;64.10;;;;;;5048032;28;20202;-51
2023/06/29 09:37:20;;;;;;;0.10;0.10;;;16.30;64.00;;;;;;5073141;28;20234;-48
2023/06/29 09:40:03;;;;;;;0.10;0.10;;;16.30;64.00;;;;;;5072924;28;20226;-55
2023/06/29 09:42:41;;;;;;;0.20;0.20;;;16.30;64.20;;;;;;5067808;28;20703;-50
2023/06/29 09:45:15;;;;;;;0.10;0.10;;;16.30;64.20;;;;;;5051928;28;20194;-54
2023/06/29 09:47:53;;;;;;;0.00;0.00;;;16.30;64.20;;;;;;5052699;28;20191;-50
2023/06/29 09:50:27;;;;;;;0.03;0.03;;;16.30;64.20;;;;;;5031031;28;20354;-51
2023/06/29 09:52:58;;;;;;;0.00;0.00;;;16.30;64.20;;;;;;5050396;28;20740;-49
2023/06/29 09:55:37;;;;;;;0.10;0.10;;;16.20;64.20;;;;;;5053061;28;20203;-51
2023/06/29 09:58:10;;;;;;;0.10;0.10;;;16.20;64.10;;;;;;5052690;28;20647;-49
2023/06/29 10:00:45;;;;;;;0.05;0.05;;;16.20;64.20;;;;;;5035162;28;20199;-49
2023/06/29 10:03:16;;;;;;;0.10;0.10;;;16.20;64.10;;;;;;5052707;28;20666;-51
2023/06/29 10:05:46;;;;;;;0.10;0.10;;;16.20;64.20;;;;;;5052009;28;20215;-56
2023/06/29 10:08:19;;;;;;;0.10;0.10;;;16.20;64.20;;;;;;5067846;28;20195;-54
2023/06/29 10:10:54;;;;;;;0.10;0.10;;;16.20;64.20;;;;;;5052322;28;20277;-52
2023/06/29 10:13:26;;;;;;;0.10;0.10;;;16.20;64.20;;;;;;5052992;28;20195;-55
2023/06/29 10:16:00;;;;;;;0.10;0.10;;;16.20;65.00;;;;;;5032603;28;20238;-52
2023/06/29 10:18:34;;;;;;;0.00;0.00;;;16.10;64.50;;;;;;5032984;28;20286;-53
2023/06/29 10:21:05;;;;;;;0.10;0.10;;;16.20;64.10;;;;;;5031688;28;20222;-55
2023/06/29 10:23:37;;;;;;;0.10;0.10;;;16.20;64.10;;;;;;5046856;28;20667;-50
2023/06/29 10:26:09;;;;;;;0.10;0.10;;;16.20;64.10;;;;;;5051336;28;20312;-47
2023/06/29 10:28:40;;;;;;;0.00;0.00;;;16.10;64.00;;;;;;5050851;28;20200;-56
2023/06/29 10:31:13;;;;;;;0.10;0.10;;;16.10;64.00;;;;;;5051742;28;20310;-52
2023/06/29 10:33:50;;;;;;;0.10;0.10;;;16.10;64.00;;;;;;5051002;28;20227;-54
2023/06/29 10:36:21;;;;;;;0.10;0.10;;;16.10;64.00;;;;;;5054969;28;20191;-52
2023/06/29 10:38:52;;;;;;;0.10;0.10;;;16.10;64.00;;;;;;5069055;28;20214;-50
2023/06/29 10:41:29;;;;;;;0.10;0.10;;;16.10;64.10;;;;;;5051306;28;20216;-47
2023/06/29 10:44:01;;;;;;;0.10;0.10;;;16.10;64.10;;;;;;5050935;28;20223;-52
2023/06/29 10:46:54;;;;;;;0.10;0.10;;;16.10;64.10;;;;;;5051080;28;20703;-51
2023/06/29 10:49:25;;;;;;;0.10;0.10;;;16.10;64.10;;;;;;5051140;28;20279;-53
2023/06/29 10:51:57;;;;;;;0.10;0.10;;;16.10;64.00;;;;;;5051031;28;20216;-49
2023/06/29 10:54:28;;;;;;;0.10;0.10;;;16.00;64.10;;;;;;5051425;28;20184;-47
2023/06/29 10:57:03;;;;;;;0.10;0.10;;;16.00;64.00;;;;;;5050467;28;20195;-51
2023/06/29 10:59:36;;;;;;;0.10;0.10;;;16.00;64.00;;;;;;5052260;28;20278;-49
2023/06/29 11:02:11;;;;;;;0.00;0.00;;;16.00;63.90;;;;;;5051197;28;20277;-51
2023/06/29 11:04:43;;;;;;;0.10;0.10;;;16.00;63.90;;;;;;5057236;28;20277;-53
2023/06/29 11:07:15;;;;;;;0.00;0.00;;;16.00;64.00;;;;;;5070943;28;20218;-49
2023/06/29 11:09:45;;;;;;;0.10;0.10;;;16.00;64.00;;;;;;5063890;28;20595;-49
2023/06/29 11:12:18;;;;;;;0.10;0.10;;;16.00;64.00;;;;;;5051290;28;20766;-48
2023/06/29 11:14:49;;;;;;;0.10;0.10;;;16.00;63.90;;;;;;5051623;28;20188;-49
2023/06/29 11:17:21;;;;;;;0.10;0.10;;;16.00;64.00;;;;;;5055205;28;20211;-54
2023/06/29 11:19:52;;;;;;;0.10;0.10;;;16.00;64.00;;;;;;5062178;28;20199;-49
2023/06/29 11:22:23;;;;;;;0.13;0.13;;;16.00;64.00;;;;;;5050916;28;20218;-49
2023/06/29 11:24:54;;;;;;;0.10;0.10;;;15.90;63.90;;;;;;5050408;28;20282;-48
2023/06/29 11:27:25;;;;;;;0.10;0.10;;;15.90;64.00;;;;;;5051113;28;20223;-49
2023/06/29 11:29:59;;;;;;;0.10;0.10;;;15.90;63.90;;;;;;5050934;28;20199;-48
2023/06/29 11:32:34;;;;;;;0.10;0.10;;;15.90;63.90;;;;;;5051463;28;20298;-51
2023/06/29 11:35:06;;;;;;;0.08;0.08;;;15.90;64.00;;;;;;5051120;28;20196;-50
2023/06/29 11:37:37;;;;;;;0.10;0.10;;;15.90;64.00;;;;;;5048980;28;20666;-54
2023/06/29 11:40:17;;;;;;;0.10;0.10;;;15.90;64.00;;;;;;5041971;28;20533;-53
2023/06/29 11:42:49;;;;;;;0.10;0.10;;;15.90;63.90;;;;;;5041066;28;20215;-53
2023/06/29 11:45:20;;;;;;;0.10;0.10;;;15.90;63.90;;;;;;5040409;28;20191;-55
2023/06/29 11:47:57;;;;;;;0.08;0.08;;;15.90;63.90;;;;;;5040163;28;20220;-51
2023/06/29 11:50:30;;;;;;;0.10;0.10;;;15.90;63.90;;;;;;5039649;28;20246;-48
2023/06/29 11:53:01;;;;;;;0.10;0.10;;;15.90;63.90;;;;;;5044314;28;20207;-49
2023/06/29 11:55:32;;;;;;;0.00;0.00;;;15.90;63.90;;;;;;5040490;28;20226;-47
2023/06/29 11:58:03;;;;;;;0.10;0.10;;;15.90;64.00;;;;;;5045694;28;20190;-48
2023/06/29 12:00:34;;;;;;;0.10;0.10;;;15.80;63.90;;;;;;5044842;28;20223;-47
2023/06/29 12:03:14;;;;;;;0.10;0.10;;;15.80;63.90;;;;;;5043944;28;20206;-48
2023/06/29 12:05:46;;;;;;;0.00;0.00;;;15.80;63.90;;;;;;5047900;28;20199;-48
2023/06/29 12:08:18;;;;;;;0.10;0.10;;;15.80;63.90;;;;;;5044125;28;20787;-47
2023/06/29 12:10:49;;;;;;;0.10;0.10;;;15.80;63.90;;;;;;5042961;28;20235;-49
2023/06/29 12:13:20;;;;;;;0.10;0.10;;;15.80;63.90;;;;;;5043595;28;20188;-47
2023/06/29 12:15:52;;;;;;;0.00;0.00;;;15.80;63.90;;;;;;5044051;28;20234;-64
2023/06/29 12:18:28;;;;;;;0.10;0.10;;;15.70;63.80;;;;;;5043959;28;20223;-47
2023/06/29 12:21:03;;;;;;;0.10;0.10;;;15.80;63.90;;;;;;5044810;28;20208;-50
2023/06/29 12:23:34;;;;;;;0.10;0.10;;;15.80;64.00;;;;;;5043845;28;20191;-49
2023/06/29 12:26:05;;;;;;;0.10;0.10;;;15.80;63.90;;;;;;5046603;28;20231;-51
2023/06/29 12:28:36;;;;;;;0.10;0.10;;;15.80;64.00;;;;;;5047592;28;20655;-51
2023/06/29 12:31:08;;;;;;;0.10;0.10;;;15.80;64.00;;;;;;5045212;28;20291;-50
2023/06/29 12:33:40;;;;;;;0.08;0.08;;;15.80;64.00;;;;;;5044486;28;20246;-49
2023/06/29 12:36:11;;;;;;;0.10;0.10;;;15.70;63.80;;;;;;5046656;28;20192;-49
2023/06/29 12:38:42;;;;;;;0.10;0.10;;;15.70;63.80;;;;;;5043526;28;20675;-50
2023/06/29 12:41:13;;;;;;;0.08;0.08;;;15.70;63.80;;;;;;5045962;28;20219;-52
2023/06/29 12:43:43;;;;;;;0.10;0.10;;;15.70;63.80;;;;;;5043189;28;20223;-48
2023/06/29 12:46:15;;;;;;;0.10;0.10;;;15.70;63.80;;;;;;5046533;28;20195;-49
2023/06/29 12:48:47;;;;;;;0.10;0.10;;;15.70;63.90;;;;;;5044380;28;20218;-52
2023/06/29 12:51:18;;;;;;;0.10;0.10;;;15.70;63.90;;;;;;5042887;28;20235;-50
2023/06/29 12:53:49;;;;;;;0.10;0.10;;;15.70;63.90;;;;;;5043144;28;20275;-53
2023/06/29 12:56:20;;;;;;;0.10;0.10;;;15.70;63.90;;;;;;5043385;28;20192;-52
2023/06/29 12:58:50;;;;;;;0.10;0.10;;;15.60;63.80;;;;;;5043331;28;20275;-53
2023/06/29 13:01:21;;;;;;;0.10;0.10;;;15.60;63.80;;;;;;5042862;28;20211;-50
2023/06/29 13:03:54;;;;;;;0.10;0.10;;;15.60;63.90;;;;;;5042468;28;20195;-50
2023/06/29 13:06:25;;;;;;;0.10;0.10;;;15.60;63.90;;;;;;5043368;28;20276;-53
2023/06/29 13:08:55;;;;;;;0.00;0.00;;;15.60;63.90;;;;;;5041692;28;20315;-49
2023/06/29 13:11:27;;;;;;;0.10;0.10;;;15.60;63.90;;;;;;5043451;28;20265;-52